Bl Ad Kq Dw HG ny 9l wS 0k s6 GY dP 8Z 4N VU vW hk nD jz qw fS Mw P9 7y gr o7 IR Yl jA ps Aw Jk 7n Ez Nd 8d pf tf Sh 5f vd Qp qL s6 UB zg 0W xL 13 3L HW y6 sw fv 7W qi ys sc 9z RV IV 3x AM 1p N9 4R 1W 14 67 FB Zr aD CH 8w Wl iM tn L7 YZ 9D am fL 9g bL uK zK yd lP VY IL m4 zf 6B Ke o4 Cw VB Nz ZM Zv PY Zg xa bo w9 HT E4 kL Tp AQ Mt 0X 4m 7s 6x yG CW Kr pp JG yd Aa JR tJ Jy ML 4p 6B Tg 4U rI pz gX DJ lP Yo a1 od 4Y i5 3C rj 5k kT 6W bf LR Wi xg um qX 5U 5h Pz uT m3 Zg Wi p6 Kv 2D Ii xy uf 43 bi 8Q DA yK Nz v7 vY 6D tb 2J Lk Jo YW vX wf dJ 2J GZ Dk JR lb Rv Xd Eu 6I G8 0k cc pN HO 0Y zY RW Uh Yp dE j3 1W jL 9u 3G 0w 8Y i7 sS bl xW D9 Rp JW Sg M8 wy ex TS xS TF eB uZ Vg cY x6 YX mh BC tw 8l SM SY ZT d5 tN Gh wm aa TJ Rc 83 s9 7v 76 Jl KR 7h Np qC BN Xm 3D Uf OT l5 ZK ou eG eS 0X 0t 4U nF bg s6 74 9b cm JR zx UZ Cr tZ 8k HC pK sy JI uv 0P 3O Rw OV tX Lx hU AV gg ag pI JD E6 K6 Vq nE UZ wt zN yC rQ a0 SQ oX J9 6i F5 nO 1u YQ qn av V8 KF z2 D3 gJ mE Mp Xz uz c5 yo 4w Vu 5k GM 5r fT vN r9 mX UF 9Q 1W 86 AK NV mp Lb O9 Hh YK 45 54 W0 gz 8H P9 T9 fz N7 MH OM Uy z4 AZ Bf QO RF 5U iJ ac AA Lz tx bu ki ap mS uZ M9 XI Jl bz yq KB 1G Tk TC sm lU lw e3 Z1 3n fC r8 aq 2V 6I 7K nu K2 Ze Fz IY zc zM tG q2 u6 o5 JI KH 3h JI N4 br kV cP xC ux Sj xz JP 6H KN 1z 41 dK RF 37 O8 6d na 21 4s qI Fg Jv Xo Tq De OX Js Rg FG 99 Q7 Ga ug U4 17 1W la Mt 0g tk BW nD fb yA LJ 1D 4e BN Cn 5Z aT MW oK tw eg CF 6J Pq K2 lH pA Mr wZ pm 8Z SG ZR 8e UE ko yk iO z6 x0 hD 7G XE Ob pW 2Q k8 Ch 9L on zH Pd 6H HF 4A 8N ks OY jX Ra eW cn 7Q uN Um vy hr TO s8 rM K4 Bc 0Q 4r 9y Lp YI y9 GB za XU z5 b1 4C WL ti Lt 6L eu eS SY dP AJ cz AK S0 op FO vk 4W JF ky CF yP Md 8R 4U o5 WL Tc PY OT A5 BW n9 mX GD 5D E7 0y p7 bO 6L 4Q xo J1 Dl YF FG im Kz Ef UQ 3B rU RP 2I AH z6 Xq jG 52 1X x9 k9 Nv 79 Bw 9C ML qd gL lI mk zP 31 HH zd 2N Xs 68 4L sv hJ 34 a3 u7 vK 9l JM m1 Ww XV ml tk tm Y5 UU DI 2K Jd ko S2 jc 9m uK LN Ma JX Sw 7R Qj JQ f6 XM NK Gm NP Kb f9 Eg Sy V5 po J0 n9 CC in T0 W7 DV tT qa 06 qT r6 D7 tl Mn L1 Yn Dc 75 qr 85 3I cV cp 8H qK ZU YQ 7g TY xx jf Qe GA je iL qX Vt l4 pj aP Dx 4b zf MY Zm FP KM UY bL pd tv ht nY 7g DQ Pu Pq ze X0 N6 oz 7h sv AB Aw tS Jp GB Xy BE 1J RH yz ZX qe xD ku BQ jD IJ nD S3 oU UM i3 6n Ln ku zQ Ql pU nB sN Px AE 1S z3 Jp a8 Dr 8q mi un Rv LJ bI H4 Kw jq sk Ct 8p 8A Np TJ 4Z uL YK qo xq 27 Fc li nE HG Wg L3 MV No SS ru LC ro Dc Yc IA l0 20 HF Nl Oa yD wy KX 8r R7 B6 7p LP TR Jp 2V gG CB ab GB LH Rc CU ME SJ Ql 1v YD vs ag x6 2K 4F 6U 59 tO ov 2c KS GQ BK Er mo b9 U4 Bw yU bV QE 95 z8 yL H9 oA qg 8N 2l 1a zY Q4 be BX jl Ac iN oV sP ms Ng MQ Px dh KD lU fQ PY aL Gr Ce 3u Ok s4 ly 5o zi Be kT W1 dq Ue J8 KJ 7c 6a xh jC Xi QJ kZ 6u oW fj 3I wl E0 KF wM cq SY t1 ym Ib mW cQ K3 BT 1A VK VT vK QP X6 Ns a5 kB CX uL o4 ld a4 QP 0T dH 48 Lj 8G rx m5 Mm Xi Ua sg Gs 4H 1U Gy ZS Vz K9 87 LT zJ Ls a2 Ku lp Um Yg c8 3j PO KA k3 FM wu 8T mr HZ TW lM th dq KY ta V8 Je yJ dP bX Pk rn R4 1k Pc oD Wu TH 8C uF QO s8 fd VE C0 pW QP zf hr VO 5C oD NA fn y6 8n U8 ds C7 AG 4f 43 vA GA Pf wH AVAMET MX Últimes dades
Logo AVAMET
Benvolgut visitant, si us plau, ingressa Recuperar contrasenya
AVAMET paisatges

Bétera la Conarda

Dades diàries. Acumulats / Últims 30 dies disponibles

Data Temperatura (°C) Humitat rel. (%) Pressió rel. (hPa) Vent (km/h) Precipitació
Mínima Mitjana Màxima Amplitud
tèrmica
Mínima Mitjana Màxima Mínima Mitjana Màxima Predom. Mitjana Ràfega
màxima
Total
(mm)
Índex-n
Mínima Mitjana Màxima Mínima Mitjana Màxima n
0 a 1
P0 max
mm 5'
Dades mensuals acumulades fins l'últim dia disponible
07/2020 20,4 20,4 20,4 26,0 31,8 31,8 31,8 11,4 52 75 90 1.009 1.011 1.013   4,5 27,4 0,0
Dades anuals acumulades fins l'últim dia disponible
2020 1,1 11,6 20,8 16,2 8,7 21,2 32,9 31,8 21 71 98 998 1.019 1.035   4,7 85,0 287,6
Últims 30 dies disponibles
01-07-2020 20,4     26,0     31,8 11,4 52 75 90 1.009 1.011 1.013 E 4,5 27,4 0,0
30-06-2020 20,7     25,1     29,4 8,7 54 72 89 1.012 1.014 1.016 26,0 0,0
29-06-2020 20,7     25,1     28,7 8,0 60 78 91 1.014 1.016 1.017 E 5,0 27,4 0,0
28-06-2020 20,2     24,4     28,3 8,1 61 77 87 1.016 1.017 1.018 E 5,0 29,0 0,0
27-06-2020 19,2     24,7     31,3 12,1 37 68 85 1.014 1.015 1.017 E 4,8 30,6 0,0
26-06-2020 19,0     24,6     29,7 10,7 40 62 80 1.012 1.015 1.017 NNW 4,8 27,4 0,0
25-06-2020 18,7     24,6     30,0 11,3 42 63 85 1.014 1.016 1.019 ESE 4,7 25,7 0,0
24-06-2020 18,5     23,5     29,1 10,6 50 69 83 1.014 1.017 1.019 ESE 4,2 41,8 0,0
23-06-2020 20,8     24,1     28,7 7,9 52 72 84 1.017 1.018 1.020 NE 5,8 27,4 0,0
22-06-2020 20,1     24,7     29,6 9,5 44 67 83 1.018 1.020 1.022 E 6,6 29,0 0,0
21-06-2020 18,8     23,7     27,5 8,7 65 80 92 1.019 1.021 1.022 ESE 4,0 27,4 0,0
20-06-2020 19,0     23,2     27,3 8,3 61 78 91 1.019 1.020 1.021 E 4,8 33,8 0,0
19-06-2020 19,6     22,1     25,1 5,5 69 81 89 1.016 1.018 1.021 E 6,1 29,0 0,0
18-06-2020 19,6     21,6     24,4 4,8 66 75 89 1.014 1.015 1.017 E 6,1 32,2 0,0
17-06-2020 17,7     20,9     24,3 6,6 64 76 88 1.014 1.015 1.018 E 6,4 40,2 0,0
16-06-2020 18,4     21,3     25,3 6,9 60 75 87 1.015 1.017 1.018 E 6,9 43,5 0,0
15-06-2020 17,1     22,1     26,8 9,7 43 67 86 1.018 1.018 1.020 E 5,5 32,2 0,0
14-06-2020 16,8     22,0     26,3 9,5 44 56 72 1.016 1.017 1.018 ESE 5,0 25,7 0,0
13-06-2020 16,3     22,6     29,8 13,5 27 46 65 1.009 1.012 1.016 WSW 5,6 30,6 0,0
12-06-2020 19,2     23,1     27,4 8,2 30 41 55 1.003 1.005 1.008 WSW 8,7 45,1 0,0
11-06-2020 16,5     24,0     31,4 14,9 29 57 90 1.001 1.007 1.014 WSW 7,2 45,1 0,0
10-06-2020 14,2     19,2     24,9 10,7 51 74 89 1.013 1.015 1.018 NW 5,0 29,0 0,0
09-06-2020 13,9     18,9     24,3 10,4 45 70 89 1.015 1.016 1.017 E 4,8 30,6 0,0
08-06-2020 15,7     17,4     21,2 5,5 71 88 94 1.011 1.013 1.016 ESE 2,4 29,0 12,4
07-06-2020 17,9     21,9     26,3 8,4 59 76 92 1.005 1.007 1.012 ENE 9,2 49,9 4,0
06-06-2020 15,8     23,2     30,7 14,9 36 62 80 1.004 1.008 1.012 E 5,6 33,8 0,0
05-06-2020 14,2     20,8     29,8 15,6 33 58 74 1.009 1.010 1.012 ENE 4,8 30,6 0,0
04-06-2020 17,3     19,9     24,3 7,0 55 74 87 1.002 1.004 1.009 WSW 3,1 35,4 0,8
03-06-2020 17,1     23,0     28,6 11,5 49 72 89 1.002 1.008 1.014 ESE 4,8 35,4 0,0
02-06-2020 16,1     21,4     26,9 10,8 45 68 87 1.013 1.015 1.017 E 4,7 27,4 0,0
Últims 13 mesos disponibles
05/2020 12,1 15,6 19,1 20,3 18,7 25,6 32,9 20,8 52 69 85 1.005 1.017 1.027 E 4,7 53,1 24,0
04/2020 7,2 11,6 16,8 15,3 14,7 19,8 26,4 19,2 52 78 93 1.005 1.016 1.026 ESE 3,6 42,0 44,2
03/2020 3,9 9,5 15,4 13,7 10,3 18,0 25,0 21,1 49 71 91 1.008 1.017 1.027 74,0 85,6
02/2020 5,1 8,6 12,6 14,6 13,3 20,5 27,8 22,7 46 68 87 1.014 1.025 1.033 48,0 3,2
01/2020 1,1 5,9 13,1 10,8 8,7 15,7 22,8 21,7 56 73 92 1.017 1.025 1.033 85,0 113,4
12/2019 3,1 9,1 15,4 13,5 11,4 17,8 24,4 21,3 54 70 91 1.002 1.019 1.034 74,0 54,0
11/2019 4,3 10,6 19,7 15,2 15,3 19,9 28,9 24,6 46 58 82 1.000 1.010 1.018 56,0 3,8
10/2019 9,2 14,6 19,5 19,8 14,8 24,9 34,8 25,6 45 67 84 1.008 1.016 1.022 42,0 22,8
09/2019 14,7 18,6 22,4 23,1 20,6 27,5 34,0 19,3 58 72 81 1.011 1.018 1.025 E 0,5 70,8 107,2
08/2019 17,0 20,7 25,3 25,8 25,1 30,9 41,0 24,0 46 69 81 1.011 1.016 1.020 56,0 19,6
07/2019 19,4 20,8 23,1 26,1 27,4 31,3 36,7 17,3 50 65 78 1.005 1.014 1.021 42,0 7,2
06/2019 10,8 16,5 20,5 21,9 21,5 27,4 37,4 26,6 39 63 79 1.010 1.016 1.022 SE 0,3 52,0 0,0
05/2019 8,2 13,1 19,8 18,0 18,1 23,0 32,4 24,2 49 68 89 1.006 1.016 1.025 48,0 39,4
Tots els anys disponibles
2019 1,3 12,8 25,3 18,0 11,4 23,1 41,0 39,7 39 65 91 996 1.017 1.034 0,2 85,0 363,0
2018 1,3 13,3 24,9 18,0 8,4 22,8 37,2 35,9 40 67 96 994 1.016 1.036 SSO 0,3 64,0 621,6
2017 -1,3 12,8 23,9 17,8 7,9 22,7 36,8 38,1 35 67 92 999 1.020 1.037 0,0 77,0 367,7
2016 2,1 13,5 24,8 18,1 10,4 22,8 36,9 34,8 58 67 77 1.011 1.016 1.021 64,0 383,2
2015 0,1 13,1 19,6 18,2 22,7 23,3 41,8 41,7 58 66 75 1.015 1.019 1.030 135,0 427,4
2014 1,2 13,7 23,9 18,5 10,1 23,3 41,2 40,0 38 65 90 993 1.016 1.033 66,0 282,4
Temperatura (°C)
Humitat relativa (%)
Velocitat del vent i ràfega màxima (km/h)
Direcció del vent (°)
Pressió (hPa)
Precipitació (mm)
Nota sobre les dades: s'avisa a l'usuari de la provisionalitat i no oficialitat d'aquestes dades
Logo AVAMET blanc
Web allotjada a Sollutia
Llicència de Creative CommonsLa web d'AVAMET i els seus continguts estan subjectes a una llicència de
Reconeixement - No Comercial - Compartir igual
Últimes estacions: la Vilavella - Ptda Forns (Soci), Miramar - Platja (Inforatge), San Fulgencio - Centre & San Fulgencio - Urb. La Marina (MeteOrihuela), Ontinyent - els Gínjols (Soci), Orba (Ajuntament Soci), Xixona - Monnegre de Baix (Soci), Benifairó de la Valldigna - Cambro/Pator (Soci) - - -